Time;durP1;ratioP1;P1;durP2;ratioP2;P2;SDS_P1;SDS_P2;PMS_P1;PMS_P2;Temp;Humidity;BMP_temperature;BMP_pressure;BME280_temperature;BME280_humidity;BME280_pressure;Samples;Min_cycle;Max_cycle;Signal;HPM_P1;HPM_P2
2021/01/30 00:00:39;;;;;;;9.83;7.70;;;-0.20;99.90;;;;;;4957381;28;20484;-45
2021/01/30 00:03:09;;;;;;;12.00;8.83;;;-0.20;99.90;;;;;;4958114;28;21076;-44
2021/01/30 00:05:38;;;;;;;10.57;8.13;;;-0.20;99.90;;;;;;4955263;28;20490;-44
2021/01/30 00:08:14;;;;;;;11.27;8.70;;;-0.20;99.90;;;;;;4958426;28;20481;-45
2021/01/30 00:10:43;;;;;;;11.23;8.50;;;-0.20;99.90;;;;;;4956837;28;20564;-46
2021/01/30 00:13:10;;;;;;;12.23;9.17;;;-0.10;99.90;;;;;;4956119;28;20581;-45
2021/01/30 00:15:43;;;;;;;11.03;8.27;;;-0.10;99.90;;;;;;4955508;28;20481;-45
2021/01/30 00:18:11;;;;;;;12.63;8.93;;;-0.10;99.90;;;;;;4958025;28;21092;-46
2021/01/30 00:20:39;;;;;;;12.43;9.27;;;-0.10;99.90;;;;;;4957861;28;20496;-45
2021/01/30 00:23:08;;;;;;;12.23;9.40;;;-0.10;99.90;;;;;;4955730;28;20552;-45
2021/01/30 00:26:32;;;;;;;11.07;8.73;;;-0.10;99.90;;;;;;4956389;28;20497;-45
2021/01/30 00:29:05;;;;;;;14.45;9.80;;;-0.10;99.90;;;;;;1420450;28;10023676;-45
2021/01/30 00:31:33;;;;;;;12.67;9.53;;;0.00;99.90;;;;;;4614776;28;10001186;-45
2021/01/30 00:34:00;;;;;;;12.37;9.70;;;0.00;99.90;;;;;;4961516;28;20795;-45
2021/01/30 00:36:28;;;;;;;19.27;10.47;;;0.00;99.90;;;;;;4971217;28;21060;-44
2021/01/30 00:38:55;;;;;;;13.73;10.20;;;0.00;99.90;;;;;;4971195;28;21195;-45
2021/01/30 00:41:22;;;;;;;13.13;9.83;;;0.00;99.90;;;;;;4970113;28;20887;-45
2021/01/30 00:43:54;;;;;;;13.40;10.13;;;0.00;99.90;;;;;;4968621;28;20970;-45
2021/01/30 00:46:23;;;;;;;14.80;10.27;;;0.00;99.90;;;;;;4970890;28;21130;-46
2021/01/30 00:48:50;;;;;;;13.03;10.17;;;0.10;99.90;;;;;;4970356;28;21016;-45
2021/01/30 00:51:19;;;;;;;13.63;9.77;;;0.10;99.90;;;;;;4963637;28;20486;-45
2021/01/30 00:53:49;;;;;;;13.87;10.30;;;0.10;99.90;;;;;;4984185;28;20564;-45
2021/01/30 00:56:16;;;;;;;15.10;10.07;;;0.10;99.90;;;;;;4967849;28;20521;-44
2021/01/30 00:58:45;;;;;;;14.33;10.50;;;0.10;99.90;;;;;;4982336;28;20552;-45
2021/01/30 01:01:14;;;;;;;15.23;10.53;;;0.10;99.90;;;;;;4982836;28;20561;-45
2021/01/30 01:03:44;;;;;;;14.17;10.07;;;0.10;99.90;;;;;;4966057;28;20470;-45
2021/01/30 01:06:12;;;;;;;13.30;10.53;;;0.10;99.90;;;;;;4968351;28;20572;-45
2021/01/30 01:08:40;;;;;;;14.10;10.50;;;0.10;99.90;;;;;;4969437;28;20605;-46
2021/01/30 01:11:08;;;;;;;14.40;10.43;;;0.10;99.90;;;;;;4970091;28;20482;-45
2021/01/30 01:13:36;;;;;;;14.57;10.77;;;0.20;99.90;;;;;;4970308;28;20561;-45
2021/01/30 01:16:04;;;;;;;14.30;10.80;;;0.20;99.90;;;;;;4970650;28;20561;-45
2021/01/30 01:18:31;;;;;;;14.33;10.83;;;0.20;99.90;;;;;;4970573;28;20483;-44
2021/01/30 01:20:59;;;;;;;13.27;10.33;;;0.20;99.90;;;;;;4970392;28;20517;-44
2021/01/30 01:23:27;;;;;;;17.13;11.80;;;0.20;99.90;;;;;;4968862;28;20510;-44
2021/01/30 01:25:54;;;;;;;13.97;11.37;;;0.20;99.90;;;;;;4969008;28;20485;-45
2021/01/30 01:28:21;;;;;;;15.27;10.77;;;0.20;99.90;;;;;;4969525;28;20574;-44
2021/01/30 01:30:48;;;;;;;16.27;11.57;;;0.20;99.90;;;;;;4969675;28;20548;-45
2021/01/30 01:33:16;;;;;;;15.87;11.97;;;0.30;99.90;;;;;;4968421;28;20545;-44
2021/01/30 01:35:43;;;;;;;15.87;11.60;;;0.30;99.90;;;;;;4969250;28;20559;-45
2021/01/30 01:38:11;;;;;;;16.13;12.20;;;0.30;99.90;;;;;;4970767;28;20541;-44
2021/01/30 01:40:40;;;;;;;16.10;12.47;;;0.30;99.90;;;;;;4970741;28;20588;-45
2021/01/30 01:43:13;;;;;;;17.40;12.57;;;0.30;99.90;;;;;;4970315;28;21025;-45
2021/01/30 01:45:41;;;;;;;14.30;11.37;;;0.30;99.90;;;;;;4969237;28;20565;-45
2021/01/30 01:48:19;;;;;;;16.97;13.00;;;0.40;99.90;;;;;;4970588;28;20484;-45
2021/01/30 01:50:50;;;;;;;16.53;13.37;;;0.40;99.90;;;;;;4970081;28;20556;-44
2021/01/30 01:53:23;;;;;;;17.73;13.90;;;0.30;99.90;;;;;;4969983;28;20505;-44
2021/01/30 01:55:53;;;;;;;17.83;13.43;;;0.40;99.90;;;;;;4950768;28;20490;-45
2021/01/30 01:58:24;;;;;;;20.30;13.17;;;0.40;99.90;;;;;;4950913;28;20986;-44
2021/01/30 02:00:53;;;;;;;18.10;14.30;;;0.40;99.90;;;;;;4950883;28;20499;-45
2021/01/30 02:03:24;;;;;;;17.33;14.07;;;0.40;99.90;;;;;;4965676;28;20481;-45
2021/01/30 02:05:51;;;;;;;18.90;14.47;;;0.40;99.90;;;;;;4962930;28;20508;-45
2021/01/30 02:08:23;;;;;;;19.03;14.90;;;0.40;99.90;;;;;;4967857;28;20490;-45
2021/01/30 02:10:52;;;;;;;18.33;13.87;;;0.40;99.90;;;;;;4969436;28;20482;-44
2021/01/30 02:13:22;;;;;;;20.30;14.97;;;0.40;99.90;;;;;;4969302;28;20545;-45
2021/01/30 02:15:55;;;;;;;20.03;15.40;;;0.40;99.90;;;;;;4949880;28;20558;-45
2021/01/30 02:18:35;;;;;;;21.90;15.47;;;0.40;99.90;;;;;;4950879;28;20484;-44
2021/01/30 02:22:04;;;;;;;20.17;15.17;;;0.40;99.90;;;;;;4950110;28;20856;-45
2021/01/30 02:25:11;;;;;;;23.83;16.27;;;0.40;99.90;;;;;;4986718;28;20534;-44
2021/01/30 02:27:58;;;;;;;20.07;14.90;;;0.40;99.90;;;;;;4969972;28;20513;-45
2021/01/30 02:31:06;;;;;;;23.50;16.00;;;0.40;99.90;;;;;;4969888;28;20498;-44
2021/01/30 02:34:20;;;;;;;23.90;16.13;;;0.40;99.90;;;;;;4968081;28;20517;-44
2021/01/30 02:36:55;;;;;;;24.90;15.33;;;0.40;99.90;;;;;;4968829;28;21037;-45
2021/01/30 02:39:27;;;;;;;25.83;17.17;;;0.40;99.90;;;;;;4969900;28;20484;-45
2021/01/30 02:42:04;;;;;;;25.73;16.73;;;0.40;99.90;;;;;;4968947;28;20528;-45
2021/01/30 02:44:38;;;;;;;27.03;17.43;;;0.30;99.90;;;;;;4968266;28;20536;-44
2021/01/30 02:47:14;;;;;;;27.03;17.87;;;0.30;99.90;;;;;;4969210;28;20492;-44
2021/01/30 02:49:46;;;;;;;26.10;17.97;;;0.30;99.90;;;;;;4969238;28;20474;-44
2021/01/30 02:52:19;;;;;;;26.23;17.17;;;0.30;99.90;;;;;;4968560;28;20583;-44
2021/01/30 02:54:47;;;;;;;26.37;17.77;;;0.20;99.90;;;;;;4968091;28;20504;-45
2021/01/30 02:57:17;;;;;;;27.30;18.07;;;0.20;99.90;;;;;;4969454;28;20821;-44
2021/01/30 02:59:48;;;;;;;25.20;17.33;;;0.20;99.90;;;;;;4969398;28;20553;-45
2021/01/30 03:02:18;;;;;;;27.83;17.20;;;0.20;99.90;;;;;;4967351;28;20482;-45
2021/01/30 03:04:47;;;;;;;26.47;17.30;;;0.20;99.90;;;;;;4966022;28;20489;-44
2021/01/30 03:07:59;;;;;;;26.93;17.43;;;0.20;99.90;;;;;;4967742;28;20486;-45
2021/01/30 03:10:33;;;;;;;24.17;16.93;;;0.20;99.90;;;;;;4968795;28;20957;-44
2021/01/30 03:13:12;;;;;;;27.50;17.43;;;0.20;99.90;;;;;;4967793;28;20480;-45
2021/01/30 03:15:45;;;;;;;28.90;17.77;;;0.20;99.90;;;;;;4968367;28;20868;-44
2021/01/30 03:18:17;;;;;;;26.97;18.43;;;0.30;99.90;;;;;;4968480;28;20480;-44
2021/01/30 03:20:46;;;;;;;28.03;18.33;;;0.30;99.90;;;;;;4968871;28;20501;-45
2021/01/30 03:23:17;;;;;;;27.73;18.10;;;0.20;99.90;;;;;;4968295;28;21074;-45
2021/01/30 03:25:45;;;;;;;25.40;17.67;;;0.20;99.90;;;;;;4967479;28;20478;-45
2021/01/30 03:28:14;;;;;;;25.97;16.90;;;0.30;99.90;;;;;;4968048;28;21017;-45
2021/01/30 03:30:42;;;;;;;23.70;17.43;;;0.30;99.90;;;;;;4968967;28;20862;-45
2021/01/30 03:33:11;;;;;;;27.07;17.73;;;0.30;99.90;;;;;;4968520;28;20906;-45
2021/01/30 03:35:39;;;;;;;24.13;17.10;;;0.30;99.90;;;;;;4968233;28;20482;-45
2021/01/30 03:38:07;;;;;;;23.27;16.87;;;0.30;99.90;;;;;;4968294;28;20478;-45
2021/01/30 03:40:38;;;;;;;24.07;16.97;;;0.20;99.90;;;;;;4968776;28;20993;-45
2021/01/30 03:43:07;;;;;;;23.80;16.50;;;0.30;99.90;;;;;;4968257;28;21088;-46
2021/01/30 03:45:35;;;;;;;26.67;18.23;;;0.40;99.90;;;;;;4967891;28;20474;-45
2021/01/30 03:48:05;;;;;;;24.63;17.03;;;0.50;99.90;;;;;;4968902;28;20968;-46
2021/01/30 03:50:32;;;;;;;26.57;17.77;;;0.40;99.90;;;;;;4968464;28;20477;-44
2021/01/30 03:53:04;;;;;;;25.33;17.57;;;0.30;99.90;;;;;;4967455;28;20588;-44
2021/01/30 03:55:31;;;;;;;26.03;17.83;;;0.30;99.90;;;;;;4967781;28;20519;-45
2021/01/30 03:58:00;;;;;;;27.23;17.67;;;0.20;99.90;;;;;;4968090;28;20565;-45
2021/01/30 04:00:27;;;;;;;24.20;16.10;;;0.10;99.90;;;;;;4966210;28;20518;-45
2021/01/30 04:02:55;;;;;;;25.47;17.53;;;0.10;99.90;;;;;;4965813;28;20557;-45
2021/01/30 04:05:26;;;;;;;28.27;18.57;;;0.10;99.90;;;;;;4967253;28;20497;-44
2021/01/30 04:07:58;;;;;;;25.27;17.43;;;0.00;99.90;;;;;;4968539;28;20481;-45
2021/01/30 04:10:28;;;;;;;25.80;17.73;;;0.00;99.90;;;;;;4968365;28;20486;-45
2021/01/30 04:12:57;;;;;;;23.77;16.53;;;0.00;99.90;;;;;;4968129;28;20684;-44
2021/01/30 04:15:30;;;;;;;27.07;18.13;;;0.00;99.90;;;;;;4967856;28;20485;-45
2021/01/30 04:17:58;;;;;;;26.67;17.97;;;0.20;99.90;;;;;;4968380;28;20494;-45
2021/01/30 04:20:26;;;;;;;28.27;18.93;;;0.40;99.90;;;;;;4968359;28;20557;-44
2021/01/30 04:22:54;;;;;;;28.43;19.00;;;0.30;99.90;;;;;;4967996;28;20894;-44
2021/01/30 04:25:24;;;;;;;26.43;18.43;;;0.20;99.90;;;;;;4964584;28;20498;-45
2021/01/30 04:27:53;;;;;;;25.63;18.27;;;0.10;99.90;;;;;;4962821;28;20496;-45
2021/01/30 04:30:24;;;;;;;26.87;17.93;;;0.00;99.90;;;;;;4968295;28;20641;-45
2021/01/30 04:32:54;;;;;;;24.67;16.97;;;-0.10;99.90;;;;;;4968032;28;20474;-45
2021/01/30 04:35:25;;;;;;;24.60;16.87;;;-0.20;99.90;;;;;;4967993;28;20479;-45
2021/01/30 04:37:52;;;;;;;22.37;15.83;;;-0.20;99.90;;;;;;4968519;28;20497;-45
2021/01/30 04:40:32;;;;;;;24.43;17.23;;;-0.30;99.90;;;;;;4970364;28;20481;-45
2021/01/30 04:43:13;;;;;;;25.20;16.77;;;-0.40;99.90;;;;;;4971134;28;20905;-45
2021/01/30 04:46:02;;;;;;;24.27;16.93;;;-0.40;99.90;;;;;;4971389;28;20878;-45
2021/01/30 04:48:55;;;;;;;22.23;15.50;;;-0.50;99.90;;;;;;4971881;28;20990;-44
2021/01/30 04:51:31;;;;;;;22.63;15.10;;;-0.60;99.90;;;;;;4971595;28;20568;-45
2021/01/30 04:54:28;;;;;;;22.63;15.60;;;-0.60;99.90;;;;;;4971072;28;20556;-44
2021/01/30 04:57:12;;;;;;;25.17;14.73;;;-0.60;99.90;;;;;;4970473;28;20470;-45
2021/01/30 04:59:50;;;;;;;23.00;15.00;;;-0.60;99.90;;;;;;4969018;28;20504;-45
2021/01/30 05:02:35;;;;;;;21.47;15.10;;;-0.60;99.90;;;;;;4970539;28;21060;-44
2021/01/30 05:05:07;;;;;;;25.23;16.07;;;-0.60;99.90;;;;;;4970342;28;20489;-45
2021/01/30 05:07:42;;;;;;;21.20;15.00;;;-0.60;99.90;;;;;;4952520;28;20533;-45
2021/01/30 05:10:17;;;;;;;22.93;15.57;;;-0.60;99.90;;;;;;4970787;28;20532;-45
2021/01/30 05:12:52;;;;;;;23.53;15.10;;;-0.50;99.90;;;;;;4969332;28;20474;-44
2021/01/30 05:15:27;;;;;;;19.50;14.10;;;-0.60;99.90;;;;;;4970554;28;20548;-45
2021/01/30 05:18:00;;;;;;;21.23;15.53;;;-0.70;99.90;;;;;;4971274;28;20474;-44
2021/01/30 05:20:32;;;;;;;21.03;14.67;;;-0.80;99.90;;;;;;4970990;28;20562;-44
2021/01/30 05:23:04;;;;;;;20.03;13.90;;;-0.80;99.90;;;;;;4970265;28;20490;-45
2021/01/30 05:25:31;;;;;;;18.37;13.20;;;-0.90;99.90;;;;;;4970212;28;20488;-44
2021/01/30 05:28:09;;;;;;;20.10;13.47;;;-0.90;99.90;;;;;;4971025;28;21005;-44
2021/01/30 05:31:12;;;;;;;20.00;14.57;;;-0.90;99.90;;;;;;4970594;28;20502;-44
2021/01/30 05:34:02;;;;;;;17.33;12.40;;;-0.90;99.90;;;;;;4968160;28;20498;-44
2021/01/30 05:36:40;;;;;;;19.47;13.67;;;-0.90;99.90;;;;;;4970733;28;20483;-44
2021/01/30 05:39:28;;;;;;;17.00;11.97;;;-0.90;99.90;;;;;;4970252;28;20548;-44
2021/01/30 05:42:07;;;;;;;15.60;11.37;;;-1.00;99.90;;;;;;4970833;28;20478;-44
2021/01/30 05:44:43;;;;;;;17.33;12.30;;;-1.00;99.90;;;;;;4969619;28;20478;-45
2021/01/30 05:47:18;;;;;;;19.50;12.07;;;-1.00;99.90;;;;;;4970119;28;20489;-44
2021/01/30 05:49:58;;;;;;;16.03;11.90;;;-0.90;99.90;;;;;;4970614;28;20489;-44
2021/01/30 05:52:33;;;;;;;16.53;11.40;;;-0.90;99.90;;;;;;4968330;28;20480;-45
2021/01/30 05:55:01;;;;;;;16.00;11.77;;;-0.90;99.90;;;;;;4966835;28;20726;-45
2021/01/30 05:57:28;;;;;;;16.50;12.03;;;-0.90;99.90;;;;;;4967514;28;20482;-44
2021/01/30 05:59:58;;;;;;;15.77;11.70;;;-0.80;99.90;;;;;;4968675;28;21041;-45
2021/01/30 06:02:28;;;;;;;15.77;11.57;;;-0.70;99.90;;;;;;4968822;28;21083;-45
2021/01/30 06:04:57;;;;;;;15.03;10.50;;;-0.60;99.90;;;;;;4968319;28;20482;-44
2021/01/30 06:07:35;;;;;;;21.00;13.40;;;-0.60;99.90;;;;;;4968589;28;20930;-44
2021/01/30 06:10:20;;;;;;;18.53;13.50;;;-0.20;99.90;;;;;;4968473;28;20481;-45
2021/01/30 06:12:47;;;;;;;17.30;11.23;;;-0.20;99.90;;;;;;4968621;28;20572;-44
2021/01/30 06:15:21;;;;;;;19.67;13.77;;;-0.30;99.90;;;;;;4968190;28;21096;-45
2021/01/30 06:17:49;;;;;;;18.37;11.93;;;-0.40;99.90;;;;;;4968607;28;20544;-44
2021/01/30 06:20:23;;;;;;;19.13;11.57;;;-0.20;99.90;;;;;;4969242;28;20486;-45
2021/01/30 06:23:09;;;;;;;21.87;13.40;;;-0.20;99.90;;;;;;4968161;28;20478;-45
2021/01/30 06:25:39;;;;;;;18.60;12.00;;;-0.10;99.90;;;;;;4968131;28;20545;-44
2021/01/30 06:28:16;;;;;;;23.90;13.47;;;-0.10;99.90;;;;;;4968714;28;21064;-44
2021/01/30 06:30:45;;;;;;;25.00;13.20;;;-0.10;99.90;;;;;;4968632;28;20485;-44
2021/01/30 06:33:25;;;;;;;22.13;11.87;;;-0.20;99.90;;;;;;4967958;28;20819;-44
2021/01/30 06:35:58;;;;;;;22.27;14.07;;;-0.30;99.90;;;;;;4974424;28;20476;-44
2021/01/30 06:38:33;;;;;;;27.10;16.77;;;-0.40;99.90;;;;;;4976765;28;20912;-45
2021/01/30 06:41:03;;;;;;;22.00;13.73;;;-0.50;99.90;;;;;;4968099;28;20544;-44
2021/01/30 06:43:35;;;;;;;24.67;14.57;;;-0.60;99.90;;;;;;4967282;28;20486;-44
2021/01/30 06:46:10;;;;;;;24.33;13.57;;;-0.50;99.90;;;;;;4967448;28;20529;-44
2021/01/30 06:48:41;;;;;;;27.30;15.13;;;-0.60;99.90;;;;;;4968020;28;20496;-44
2021/01/30 06:51:29;;;;;;;24.73;13.90;;;-0.60;99.90;;;;;;4968038;28;20486;-44
2021/01/30 06:54:19;;;;;;;27.83;16.27;;;-0.60;99.90;;;;;;4964928;28;20496;-45
2021/01/30 06:56:55;;;;;;;25.47;15.27;;;-0.70;99.90;;;;;;4966017;28;20482;-44
2021/01/30 06:59:28;;;;;;;31.10;17.30;;;-0.60;99.90;;;;;;4967468;28;20581;-45
2021/01/30 07:02:00;;;;;;;25.80;16.33;;;-0.70;99.90;;;;;;4967055;28;20476;-44
2021/01/30 07:05:09;;;;;;;23.37;15.93;;;-0.90;99.90;;;;;;4966278;28;20510;-44
2021/01/30 07:07:53;;;;;;;22.93;15.50;;;-1.10;99.90;;;;;;4966778;28;20482;-44
2021/01/30 07:10:44;;;;;;;20.17;13.47;;;-1.30;99.90;;;;;;4967568;28;20557;-44
2021/01/30 07:13:31;;;;;;;20.60;13.17;;;-1.30;99.90;;;;;;4966902;28;20566;-45
2021/01/30 07:16:13;;;;;;;17.10;12.03;;;-1.40;99.90;;;;;;4966925;28;21141;-44
2021/01/30 07:18:53;;;;;;;15.93;11.53;;;-1.40;99.90;;;;;;4967154;28;20500;-46
2021/01/30 07:21:23;;;;;;;19.17;11.97;;;-1.40;99.90;;;;;;4968053;28;20517;-44
2021/01/30 07:24:07;;;;;;;16.80;12.40;;;-1.40;99.90;;;;;;4967772;28;20563;-45
2021/01/30 07:26:40;;;;;;;16.77;12.30;;;-1.40;99.90;;;;;;4956908;28;20536;-45
2021/01/30 07:29:13;;;;;;;19.30;12.23;;;-1.40;99.90;;;;;;4968990;28;20574;-46
2021/01/30 07:31:48;;;;;;;14.53;10.73;;;-1.40;99.90;;;;;;4967693;28;20524;-45
2021/01/30 07:34:21;;;;;;;15.80;11.87;;;-1.40;99.90;;;;;;4967643;28;20481;-45
2021/01/30 07:36:55;;;;;;;16.50;11.23;;;-1.40;99.90;;;;;;4968421;28;20513;-45
2021/01/30 07:39:33;;;;;;;15.20;11.60;;;-1.40;99.90;;;;;;4968729;28;20474;-45
2021/01/30 07:42:07;;;;;;;15.57;11.57;;;-1.40;99.90;;;;;;4967915;28;20474;-45
2021/01/30 07:44:56;;;;;;;16.00;11.67;;;-1.40;99.90;;;;;;4965495;28;20482;-44
2021/01/30 07:47:31;;;;;;;16.47;12.20;;;-1.40;99.90;;;;;;4966329;28;20470;-45
2021/01/30 07:50:05;;;;;;;16.77;11.27;;;-1.40;99.90;;;;;;4966914;28;20837;-44
2021/01/30 07:52:42;;;;;;;14.97;11.17;;;-1.40;99.90;;;;;;4966941;28;20574;-44
2021/01/30 07:55:10;;;;;;;14.63;11.13;;;-1.30;99.90;;;;;;4966242;28;20954;-45
2021/01/30 07:58:12;;;;;;;14.37;10.43;;;-1.30;99.90;;;;;;4964498;28;20481;-47
2021/01/30 08:00:52;;;;;;;15.33;10.93;;;-1.30;99.90;;;;;;4966763;28;20869;-46
2021/01/30 08:03:54;;;;;;;14.27;10.93;;;-1.20;99.90;;;;;;4965065;28;20891;-46
2021/01/30 08:07:00;;;;;;;17.03;11.67;;;-1.10;99.90;;;;;;4965692;28;20504;-45
2021/01/30 08:09:32;;;;;;;14.97;10.90;;;-1.00;99.90;;;;;;4965528;28;20553;-46
2021/01/30 08:12:10;;;;;;;16.20;11.73;;;-1.00;99.90;;;;;;4965722;28;20867;-46
2021/01/30 08:15:10;;;;;;;16.80;11.37;;;-1.00;99.90;;;;;;4969004;28;20492;-46
2021/01/30 08:18:06;;;;;;;15.80;11.10;;;-1.00;99.90;;;;;;4969477;28;20485;-46
2021/01/30 08:20:41;;;;;;;17.57;12.17;;;-1.00;99.90;;;;;;4968979;28;20510;-46
2021/01/30 08:23:25;;;;;;;20.17;13.23;;;-1.00;99.90;;;;;;4971576;28;20508;-46
2021/01/30 08:25:58;;;;;;;17.87;12.53;;;-0.80;99.90;;;;;;4970635;28;20992;-46
2021/01/30 08:28:33;;;;;;;20.63;12.73;;;-0.80;99.90;;;;;;4971592;28;20889;-45
2021/01/30 08:31:01;;;;;;;18.60;13.00;;;-0.90;99.90;;;;;;4969014;28;21011;-45
2021/01/30 08:34:02;;;;;;;20.17;14.17;;;-1.00;99.90;;;;;;4970429;28;20563;-46
2021/01/30 08:36:37;;;;;;;18.77;13.40;;;-1.00;99.90;;;;;;4969874;28;20486;-45
2021/01/30 08:39:21;;;;;;;17.87;13.23;;;-1.00;99.90;;;;;;4970137;28;20892;-45
2021/01/30 08:41:55;;;;;;;18.87;13.30;;;-1.00;99.90;;;;;;4961455;28;20561;-46
2021/01/30 08:44:43;;;;;;;18.63;13.37;;;-1.00;99.90;;;;;;4966430;28;20564;-45
2021/01/30 08:47:17;;;;;;;16.60;11.83;;;-1.00;99.90;;;;;;4970142;28;20513;-46
2021/01/30 08:50:07;;;;;;;16.83;12.43;;;-1.10;99.90;;;;;;4966729;28;20490;-45
2021/01/30 08:52:51;;;;;;;17.93;11.93;;;-1.10;99.90;;;;;;4967333;28;20509;-46
2021/01/30 08:55:34;;;;;;;14.13;11.30;;;-1.00;99.90;;;;;;4969380;28;21020;-48
2021/01/30 08:58:02;;;;;;;16.13;11.87;;;-1.00;99.90;;;;;;4971222;28;20484;-46
2021/01/30 09:00:54;;;;;;;14.23;10.30;;;-0.90;99.90;;;;;;4970946;28;20580;-46
2021/01/30 09:03:47;;;;;;;16.20;11.70;;;-0.90;99.90;;;;;;4963155;28;21009;-46
2021/01/30 09:06:55;;;;;;;16.80;10.97;;;-0.70;99.90;;;;;;4970452;28;20497;-46
2021/01/30 09:09:25;;;;;;;15.03;10.67;;;-0.60;99.90;;;;;;4970017;28;20497;-46
2021/01/30 09:11:54;;;;;;;16.00;12.23;;;-0.50;99.90;;;;;;4969537;28;20514;-46
2021/01/30 09:14:40;;;;;;;15.60;11.60;;;-0.50;99.90;;;;;;4969102;28;20474;-46
2021/01/30 09:17:37;;;;;;;17.80;11.60;;;-0.50;99.90;;;;;;4968934;28;20492;-46
2021/01/30 09:20:27;;;;;;;14.70;10.97;;;-0.30;99.90;;;;;;4970337;28;20557;-46
2021/01/30 09:23:27;;;;;;;15.30;11.30;;;-0.30;99.90;;;;;;4970974;28;20557;-46
2021/01/30 09:26:04;;;;;;;17.23;12.03;;;-0.20;99.90;;;;;;4970797;28;20881;-47
2021/01/30 09:28:33;;;;;;;16.13;12.07;;;-0.30;99.90;;;;;;4970993;28;20498;-46
2021/01/30 09:31:04;;;;;;;15.37;11.90;;;-0.40;99.90;;;;;;4970696;28;20536;-46
2021/01/30 09:33:35;;;;;;;15.93;12.03;;;-0.30;99.90;;;;;;4969695;28;20481;-46
2021/01/30 09:36:14;;;;;;;18.47;13.07;;;-0.20;99.90;;;;;;4969627;28;20666;-47
2021/01/30 09:38:43;;;;;;;14.67;11.37;;;-0.30;99.90;;;;;;4968475;28;20482;-46
2021/01/30 09:41:22;;;;;;;17.50;12.00;;;-0.30;99.90;;;;;;4970313;28;21068;-46
2021/01/30 09:44:02;;;;;;;16.60;12.47;;;-0.10;99.90;;;;;;4969184;28;22096;-46
2021/01/30 09:46:34;;;;;;;16.17;11.83;;;-0.20;99.90;;;;;;4967782;28;20466;-47
2021/01/30 09:49:05;;;;;;;15.47;11.73;;;0.00;99.90;;;;;;4967192;28;20485;-46
2021/01/30 09:51:38;;;;;;;15.13;11.87;;;0.00;99.90;;;;;;4968868;28;20489;-46
2021/01/30 09:54:07;;;;;;;15.10;11.77;;;0.00;99.90;;;;;;4969022;28;20573;-46
2021/01/30 09:56:36;;;;;;;14.97;11.80;;;0.10;99.90;;;;;;4968946;28;20985;-47
2021/01/30 09:59:06;;;;;;;16.27;11.83;;;0.10;99.90;;;;;;4968614;28;20488;-46
2021/01/30 10:01:37;;;;;;;14.87;10.90;;;0.10;99.90;;;;;;4967542;28;20482;-46
2021/01/30 10:04:18;;;;;;;15.70;10.67;;;0.10;99.90;;;;;;4968055;28;20579;-47
2021/01/30 10:06:47;;;;;;;14.17;11.17;;;0.20;99.90;;;;;;4968599;28;20498;-46
2021/01/30 10:09:21;;;;;;;12.57;10.70;;;0.30;99.90;;;;;;4969631;28;20946;-46
2021/01/30 10:11:54;;;;;;;14.40;11.47;;;0.30;99.90;;;;;;4969628;28;20477;-46
2021/01/30 10:14:24;;;;;;;13.57;10.53;;;0.30;99.90;;;;;;4969286;28;20529;-46
2021/01/30 10:17:01;;;;;;;13.70;11.30;;;0.30;99.90;;;;;;4970269;28;20874;-46
2021/01/30 10:19:33;;;;;;;12.20;10.60;;;0.30;99.90;;;;;;4967088;28;20482;-46
2021/01/30 10:22:14;;;;;;;11.73;9.53;;;0.20;99.90;;;;;;4968313;28;20909;-46
2021/01/30 10:24:41;;;;;;;12.67;9.73;;;0.20;99.90;;;;;;4967631;28;20509;-46
2021/01/30 10:27:16;;;;;;;13.43;10.03;;;0.20;99.90;;;;;;4969091;28;20536;-46
2021/01/30 10:29:44;;;;;;;11.53;9.33;;;0.20;99.90;;;;;;4968475;28;20574;-47
2021/01/30 10:32:19;;;;;;;11.67;9.80;;;0.20;99.90;;;;;;4966714;28;20537;-46
2021/01/30 10:34:52;;;;;;;12.73;9.57;;;0.20;99.90;;;;;;4965394;28;20474;-46
2021/01/30 10:37:27;;;;;;;13.20;9.77;;;0.20;99.90;;;;;;4969272;28;20878;-46
2021/01/30 10:40:03;;;;;;;11.03;9.30;;;0.30;99.90;;;;;;4969976;28;20485;-46
2021/01/30 10:42:35;;;;;;;10.37;8.23;;;0.30;99.90;;;;;;4957531;28;20816;-46
2021/01/30 10:45:17;;;;;;;11.33;9.40;;;0.40;99.90;;;;;;4967252;28;20493;-47
2021/01/30 10:47:50;;;;;;;11.87;9.63;;;0.40;99.90;;;;;;4968637;28;20881;-47
2021/01/30 10:50:25;;;;;;;10.00;8.27;;;0.50;99.90;;;;;;4968572;28;20490;-46
2021/01/30 10:52:54;;;;;;;9.03;8.13;;;0.50;99.90;;;;;;4967701;28;20476;-46
2021/01/30 10:55:36;;;;;;;10.80;8.93;;;0.50;99.90;;;;;;4968096;28;20541;-46
2021/01/30 10:58:20;;;;;;;10.23;7.93;;;0.50;99.90;;;;;;4968702;28;20478;-47
2021/01/30 11:01:04;;;;;;;9.70;8.30;;;0.60;99.90;;;;;;4968283;28;20506;-47
2021/01/30 11:03:44;;;;;;;10.90;8.83;;;0.80;99.90;;;;;;4966046;28;21076;-46
2021/01/30 11:06:21;;;;;;;10.53;9.10;;;0.70;99.90;;;;;;4966106;28;20845;-46
2021/01/30 11:08:49;;;;;;;11.67;8.43;;;0.80;99.90;;;;;;4966450;28;20536;-46
2021/01/30 11:11:26;;;;;;;9.23;8.07;;;0.70;99.90;;;;;;4967685;28;20497;-46
2021/01/30 11:13:56;;;;;;;9.90;8.07;;;0.70;99.90;;;;;;4959588;28;20477;-47
2021/01/30 11:16:39;;;;;;;10.47;8.40;;;0.70;99.90;;;;;;4964809;28;20482;-49
2021/01/30 11:19:24;;;;;;;9.20;7.43;;;0.70;99.90;;;;;;4960892;28;20477;-47
2021/01/30 11:22:06;;;;;;;11.00;7.93;;;0.80;99.90;;;;;;4968925;28;20474;-48
2021/01/30 11:24:46;;;;;;;10.53;7.97;;;0.80;99.90;;;;;;4967779;28;20478;-47
2021/01/30 11:27:37;;;;;;;10.03;7.70;;;0.70;99.90;;;;;;4968530;28;20574;-47
2021/01/30 11:30:18;;;;;;;9.27;7.83;;;0.70;99.90;;;;;;4969018;28;20536;-47
2021/01/30 11:33:02;;;;;;;10.17;7.60;;;0.70;99.90;;;;;;4968904;28;20474;-48
2021/01/30 11:35:33;;;;;;;10.60;7.70;;;0.70;99.90;;;;;;4968079;28;20486;-48
2021/01/30 11:38:05;;;;;;;9.30;8.00;;;0.80;99.90;;;;;;4967865;28;20470;-47
2021/01/30 11:40:33;;;;;;;9.83;8.20;;;0.80;99.90;;;;;;4963155;28;20585;-47
2021/01/30 11:43:03;;;;;;;10.80;8.20;;;0.80;99.90;;;;;;4964549;28;20474;-47
2021/01/30 11:45:30;;;;;;;11.43;8.50;;;0.80;99.90;;;;;;4967150;28;20569;-48
2021/01/30 11:47:58;;;;;;;11.93;9.00;;;0.90;99.90;;;;;;4968413;28;20601;-46
2021/01/30 11:50:26;;;;;;;11.60;9.20;;;0.90;99.90;;;;;;4970307;28;20898;-47
2021/01/30 11:53:06;;;;;;;10.50;8.70;;;0.90;99.90;;;;;;4972378;28;20482;-47
2021/01/30 11:55:35;;;;;;;9.90;8.10;;;0.90;99.90;;;;;;4971687;28;20501;-47
2021/01/30 11:58:02;;;;;;;11.80;8.83;;;0.90;99.90;;;;;;4972218;28;20492;-47
2021/01/30 12:00:30;;;;;;;11.63;8.47;;;0.90;99.90;;;;;;4971629;28;20490;-47
2021/01/30 12:03:00;;;;;;;9.90;8.57;;;1.00;99.90;;;;;;4971912;28;20569;-47
2021/01/30 12:05:28;;;;;;;9.93;8.30;;;0.90;99.90;;;;;;4969309;28;20497;-46
2021/01/30 12:07:57;;;;;;;9.97;8.27;;;0.90;99.90;;;;;;4969755;28;20840;-47
2021/01/30 12:10:25;;;;;;;10.93;8.53;;;0.90;99.90;;;;;;4971051;28;20518;-47
2021/01/30 12:12:55;;;;;;;11.23;8.30;;;0.90;99.90;;;;;;4971002;28;20554;-46
2021/01/30 12:15:22;;;;;;;11.63;9.03;;;0.90;99.90;;;;;;4970252;28;20500;-46
2021/01/30 12:17:50;;;;;;;11.37;8.73;;;0.90;99.90;;;;;;4968289;28;20478;-47
2021/01/30 12:20:20;;;;;;;10.87;8.67;;;1.00;99.90;;;;;;4970628;28;20565;-46
2021/01/30 12:22:50;;;;;;;12.40;9.17;;;1.00;99.90;;;;;;4970812;28;20531;-47
2021/01/30 12:25:19;;;;;;;11.70;9.20;;;1.10;99.90;;;;;;4969926;28;20589;-46
2021/01/30 12:27:52;;;;;;;10.80;8.67;;;1.20;99.90;;;;;;4970806;28;20561;-47
2021/01/30 12:30:23;;;;;;;11.03;8.80;;;1.20;99.90;;;;;;4980632;28;20840;-47
2021/01/30 12:32:51;;;;;;;11.13;9.00;;;1.20;99.90;;;;;;4969807;28;20500;-46
2021/01/30 12:35:21;;;;;;;10.93;8.60;;;1.20;99.90;;;;;;4967225;28;20973;-46
2021/01/30 12:37:55;;;;;;;11.47;9.07;;;1.20;99.90;;;;;;4969076;28;20478;-46
2021/01/30 12:40:25;;;;;;;11.87;9.03;;;1.30;99.90;;;;;;4968746;28;21044;-47
2021/01/30 12:42:55;;;;;;;10.07;8.60;;;1.30;99.90;;;;;;4966956;28;20595;-46
2021/01/30 12:45:26;;;;;;;9.90;8.73;;;1.40;99.90;;;;;;4968552;28;20582;-47
2021/01/30 12:47:55;;;;;;;10.27;9.10;;;1.40;99.90;;;;;;4968877;28;20474;-47
2021/01/30 12:50:26;;;;;;;10.63;8.90;;;1.40;99.90;;;;;;4969146;28;20478;-46
2021/01/30 12:52:56;;;;;;;11.03;8.50;;;1.40;99.90;;;;;;4968322;28;20497;-47
2021/01/30 12:55:24;;;;;;;10.87;8.63;;;1.50;99.90;;;;;;4965724;28;20536;-47
2021/01/30 12:57:52;;;;;;;12.20;9.33;;;1.50;99.90;;;;;;4968294;28;20493;-46
2021/01/30 13:00:24;;;;;;;11.23;8.77;;;1.60;99.90;;;;;;4967592;28;20572;-46
2021/01/30 13:03:01;;;;;;;12.67;8.23;;;1.50;99.90;;;;;;4967663;28;20477;-47
2021/01/30 13:05:29;;;;;;;9.87;7.67;;;1.50;99.90;;;;;;4968292;28;20481;-46
2021/01/30 13:07:57;;;;;;;10.17;8.57;;;1.40;99.90;;;;;;4969201;28;20965;-47
2021/01/30 13:10:25;;;;;;;10.03;7.93;;;1.50;99.90;;;;;;4969726;28;20931;-47
2021/01/30 13:12:54;;;;;;;11.63;8.43;;;1.50;99.90;;;;;;4968938;28;20494;-48
2021/01/30 13:15:23;;;;;;;9.93;7.93;;;1.40;99.90;;;;;;4968976;28;20560;-46